sensor_id;sensor_type;location;lat;lon;timestamp;P1;durP1;ratioP1;P2;durP2;ratioP2
4575;SDS011;2300;51.874;8.430;2023-08-08T00:00:15;16.07;;;6.67;;
4575;SDS011;2300;51.874;8.430;2023-08-08T00:02:42;10.33;;;6.40;;
4575;SDS011;2300;51.874;8.430;2023-08-08T00:05:08;10.03;;;5.93;;
4575;SDS011;2300;51.874;8.430;2023-08-08T00:07:35;13.70;;;6.50;;
4575;SDS011;2300;51.874;8.430;2023-08-08T00:10:02;10.80;;;6.33;;
4575;SDS011;2300;51.874;8.430;2023-08-08T00:12:30;9.70;;;5.93;;
4575;SDS011;2300;51.874;8.430;2023-08-08T00:14:56;12.10;;;6.60;;
4575;SDS011;2300;51.874;8.430;2023-08-08T00:17:22;9.93;;;6.87;;
4575;SDS011;2300;51.874;8.430;2023-08-08T00:19:49;13.07;;;7.80;;
4575;SDS011;2300;51.874;8.430;2023-08-08T00:22:16;11.50;;;6.80;;
4575;SDS011;2300;51.874;8.430;2023-08-08T00:24:42;11.20;;;6.50;;
4575;SDS011;2300;51.874;8.430;2023-08-08T00:27:09;13.53;;;7.07;;
4575;SDS011;2300;51.874;8.430;2023-08-08T00:29:37;11.53;;;7.33;;
4575;SDS011;2300;51.874;8.430;2023-08-08T00:32:04;12.83;;;7.37;;
4575;SDS011;2300;51.874;8.430;2023-08-08T00:34:31;14.17;;;8.33;;
4575;SDS011;2300;51.874;8.430;2023-08-08T00:36:57;12.73;;;8.10;;
4575;SDS011;2300;51.874;8.430;2023-08-08T00:39:24;12.40;;;8.07;;
4575;SDS011;2300;51.874;8.430;2023-08-08T00:41:50;15.83;;;8.97;;
4575;SDS011;2300;51.874;8.430;2023-08-08T00:44:17;12.03;;;7.47;;
4575;SDS011;2300;51.874;8.430;2023-08-08T00:46:45;14.87;;;8.20;;
4575;SDS011;2300;51.874;8.430;2023-08-08T00:49:11;12.33;;;8.00;;
4575;SDS011;2300;51.874;8.430;2023-08-08T00:51:38;15.90;;;8.30;;
4575;SDS011;2300;51.874;8.430;2023-08-08T00:54:05;11.53;;;7.43;;
4575;SDS011;2300;51.874;8.430;2023-08-08T00:56:32;13.63;;;7.40;;
4575;SDS011;2300;51.874;8.430;2023-08-08T00:58:59;12.87;;;7.03;;
4575;SDS011;2300;51.874;8.430;2023-08-08T01:01:25;11.63;;;7.03;;
4575;SDS011;2300;51.874;8.430;2023-08-08T01:03:53;13.80;;;6.30;;
4575;SDS011;2300;51.874;8.430;2023-08-08T01:06:22;10.50;;;6.77;;
4575;SDS011;2300;51.874;8.430;2023-08-08T01:08:54;11.33;;;6.10;;
4575;SDS011;2300;51.874;8.430;2023-08-08T01:11:24;9.83;;;6.03;;
4575;SDS011;2300;51.874;8.430;2023-08-08T01:13:53;11.70;;;6.17;;
4575;SDS011;2300;51.874;8.430;2023-08-08T01:16:21;12.67;;;6.13;;
4575;SDS011;2300;51.874;8.430;2023-08-08T01:18:49;14.23;;;6.80;;
4575;SDS011;2300;51.874;8.430;2023-08-08T01:21:17;9.50;;;5.57;;
4575;SDS011;2300;51.874;8.430;2023-08-08T01:23:44;9.90;;;5.50;;
4575;SDS011;2300;51.874;8.430;2023-08-08T01:26:17;9.27;;;5.40;;
4575;SDS011;2300;51.874;8.430;2023-08-08T01:28:44;11.47;;;5.27;;
4575;SDS011;2300;51.874;8.430;2023-08-08T01:31:11;13.60;;;5.63;;
4575;SDS011;2300;51.874;8.430;2023-08-08T01:33:38;8.83;;;5.27;;
4575;SDS011;2300;51.874;8.430;2023-08-08T01:36:10;9.53;;;4.63;;
4575;SDS011;2300;51.874;8.430;2023-08-08T01:38:44;7.60;;;4.17;;
4575;SDS011;2300;51.874;8.430;2023-08-08T01:41:13;8.03;;;4.83;;
4575;SDS011;2300;51.874;8.430;2023-08-08T01:43:44;7.23;;;3.80;;
4575;SDS011;2300;51.874;8.430;2023-08-08T01:46:11;13.23;;;4.07;;
4575;SDS011;2300;51.874;8.430;2023-08-08T01:48:38;5.37;;;3.53;;
4575;SDS011;2300;51.874;8.430;2023-08-08T01:51:05;7.73;;;3.60;;
4575;SDS011;2300;51.874;8.430;2023-08-08T01:53:32;8.97;;;3.67;;
4575;SDS011;2300;51.874;8.430;2023-08-08T01:55:58;14.10;;;3.50;;
4575;SDS011;2300;51.874;8.430;2023-08-08T01:58:25;6.77;;;3.00;;
4575;SDS011;2300;51.874;8.430;2023-08-08T02:00:53;8.13;;;3.47;;
4575;SDS011;2300;51.874;8.430;2023-08-08T02:03:19;7.20;;;3.30;;
4575;SDS011;2300;51.874;8.430;2023-08-08T02:05:46;7.20;;;3.53;;
4575;SDS011;2300;51.874;8.430;2023-08-08T02:08:12;6.03;;;3.10;;
4575;SDS011;2300;51.874;8.430;2023-08-08T02:10:39;7.10;;;3.07;;
4575;SDS011;2300;51.874;8.430;2023-08-08T02:13:06;6.80;;;2.90;;
4575;SDS011;2300;51.874;8.430;2023-08-08T02:15:32;6.90;;;3.20;;
4575;SDS011;2300;51.874;8.430;2023-08-08T02:18:00;9.77;;;3.70;;
4575;SDS011;2300;51.874;8.430;2023-08-08T02:20:28;6.37;;;3.00;;
4575;SDS011;2300;51.874;8.430;2023-08-08T02:22:55;5.63;;;3.30;;
4575;SDS011;2300;51.874;8.430;2023-08-08T02:25:22;7.03;;;3.37;;
4575;SDS011;2300;51.874;8.430;2023-08-08T02:27:48;5.57;;;3.30;;
4575;SDS011;2300;51.874;8.430;2023-08-08T02:30:15;4.50;;;3.00;;
4575;SDS011;2300;51.874;8.430;2023-08-08T02:32:42;5.27;;;3.23;;
4575;SDS011;2300;51.874;8.430;2023-08-08T02:35:10;6.57;;;3.47;;
4575;SDS011;2300;51.874;8.430;2023-08-08T02:37:36;4.83;;;2.83;;
4575;SDS011;2300;51.874;8.430;2023-08-08T02:40:03;6.13;;;3.60;;
4575;SDS011;2300;51.874;8.430;2023-08-08T02:42:31;4.80;;;3.17;;
4575;SDS011;2300;51.874;8.430;2023-08-08T02:44:57;5.37;;;3.20;;
4575;SDS011;2300;51.874;8.430;2023-08-08T02:47:24;5.80;;;2.93;;
4575;SDS011;2300;51.874;8.430;2023-08-08T02:49:50;4.77;;;3.20;;
4575;SDS011;2300;51.874;8.430;2023-08-08T02:52:18;5.53;;;3.07;;
4575;SDS011;2300;51.874;8.430;2023-08-08T02:54:45;6.37;;;3.40;;
4575;SDS011;2300;51.874;8.430;2023-08-08T02:57:11;8.03;;;3.70;;
4575;SDS011;2300;51.874;8.430;2023-08-08T02:59:38;7.57;;;4.03;;
4575;SDS011;2300;51.874;8.430;2023-08-08T03:02:05;6.90;;;4.73;;
4575;SDS011;2300;51.874;8.430;2023-08-08T03:04:31;7.03;;;5.20;;
4575;SDS011;2300;51.874;8.430;2023-08-08T03:06:58;7.67;;;5.70;;
4575;SDS011;2300;51.874;8.430;2023-08-08T03:09:27;8.97;;;6.40;;
4575;SDS011;2300;51.874;8.430;2023-08-08T03:11:54;9.27;;;7.20;;
4575;SDS011;2300;51.874;8.430;2023-08-08T03:14:20;11.43;;;7.50;;
4575;SDS011;2300;51.874;8.430;2023-08-08T03:16:47;10.60;;;8.20;;
4575;SDS011;2300;51.874;8.430;2023-08-08T03:19:14;13.60;;;8.50;;
4575;SDS011;2300;51.874;8.430;2023-08-08T03:21:40;12.45;;;9.05;;
4575;SDS011;2300;51.874;8.430;2023-08-08T03:24:07;10.13;;;8.70;;
4575;SDS011;2300;51.874;8.430;2023-08-08T03:26:35;11.87;;;9.07;;
4575;SDS011;2300;51.874;8.430;2023-08-08T03:29:01;13.53;;;9.63;;
4575;SDS011;2300;51.874;8.430;2023-08-08T03:31:28;12.67;;;10.67;;
4575;SDS011;2300;51.874;8.430;2023-08-08T03:33:54;12.53;;;10.67;;
4575;SDS011;2300;51.874;8.430;2023-08-08T03:36:21;13.60;;;10.30;;
4575;SDS011;2300;51.874;8.430;2023-08-08T03:38:48;12.53;;;10.37;;
4575;SDS011;2300;51.874;8.430;2023-08-08T03:41:15;14.97;;;10.40;;
4575;SDS011;2300;51.874;8.430;2023-08-08T03:43:43;13.17;;;10.20;;
4575;SDS011;2300;51.874;8.430;2023-08-08T03:46:10;13.67;;;10.03;;
4575;SDS011;2300;51.874;8.430;2023-08-08T03:48:37;13.67;;;10.63;;
4575;SDS011;2300;51.874;8.430;2023-08-08T03:51:03;13.77;;;10.60;;
4575;SDS011;2300;51.874;8.430;2023-08-08T03:53:30;12.20;;;10.20;;
4575;SDS011;2300;51.874;8.430;2023-08-08T03:55:57;13.60;;;10.17;;
4575;SDS011;2300;51.874;8.430;2023-08-08T03:58:23;13.13;;;10.37;;
4575;SDS011;2300;51.874;8.430;2023-08-08T04:00:52;12.07;;;10.33;;
4575;SDS011;2300;51.874;8.430;2023-08-08T04:03:18;12.67;;;9.87;;
4575;SDS011;2300;51.874;8.430;2023-08-08T04:05:45;11.90;;;9.77;;
4575;SDS011;2300;51.874;8.430;2023-08-08T04:08:12;14.83;;;10.30;;
4575;SDS011;2300;51.874;8.430;2023-08-08T04:10:39;13.70;;;9.67;;
4575;SDS011;2300;51.874;8.430;2023-08-08T04:13:05;16.10;;;10.47;;
4575;SDS011;2300;51.874;8.430;2023-08-08T04:15:32;14.87;;;9.90;;
4575;SDS011;2300;51.874;8.430;2023-08-08T04:18:00;16.63;;;9.20;;
4575;SDS011;2300;51.874;8.430;2023-08-08T04:20:27;11.80;;;8.93;;
4575;SDS011;2300;51.874;8.430;2023-08-08T04:22:53;11.00;;;8.73;;
4575;SDS011;2300;51.874;8.430;2023-08-08T04:25:20;13.30;;;9.37;;
4575;SDS011;2300;51.874;8.430;2023-08-08T04:27:47;13.17;;;8.47;;
4575;SDS011;2300;51.874;8.430;2023-08-08T04:30:13;11.93;;;8.53;;
4575;SDS011;2300;51.874;8.430;2023-08-08T04:32:40;14.53;;;8.57;;
4575;SDS011;2300;51.874;8.430;2023-08-08T04:35:08;11.17;;;8.13;;
4575;SDS011;2300;51.874;8.430;2023-08-08T04:37:35;11.47;;;8.53;;
4575;SDS011;2300;51.874;8.430;2023-08-08T04:40:01;15.13;;;8.37;;
4575;SDS011;2300;51.874;8.430;2023-08-08T04:42:28;11.37;;;7.77;;
4575;SDS011;2300;51.874;8.430;2023-08-08T04:44:55;11.83;;;7.73;;
4575;SDS011;2300;51.874;8.430;2023-08-08T04:47:21;11.47;;;8.00;;
4575;SDS011;2300;51.874;8.430;2023-08-08T04:49:48;13.37;;;8.17;;
4575;SDS011;2300;51.874;8.430;2023-08-08T04:52:16;11.30;;;7.33;;
4575;SDS011;2300;51.874;8.430;2023-08-08T04:54:42;11.63;;;7.37;;
4575;SDS011;2300;51.874;8.430;2023-08-08T04:57:09;12.02;;;7.32;;
4575;SDS011;2300;51.874;8.430;2023-08-08T04:59:36;11.27;;;7.50;;
4575;SDS011;2300;51.874;8.430;2023-08-08T05:02:02;8.90;;;6.53;;
4575;SDS011;2300;51.874;8.430;2023-08-08T05:04:29;11.10;;;6.95;;
4575;SDS011;2300;51.874;8.430;2023-08-08T05:06:56;10.67;;;6.50;;
4575;SDS011;2300;51.874;8.430;2023-08-08T05:09:25;11.32;;;6.70;;
4575;SDS011;2300;51.874;8.430;2023-08-08T05:11:52;11.68;;;6.13;;
4575;SDS011;2300;51.874;8.430;2023-08-08T05:14:18;10.13;;;6.33;;
4575;SDS011;2300;51.874;8.430;2023-08-08T05:16:45;10.77;;;6.03;;
4575;SDS011;2300;51.874;8.430;2023-08-08T05:19:12;10.05;;;6.15;;
4575;SDS011;2300;51.874;8.430;2023-08-08T05:21:38;12.15;;;6.65;;
4575;SDS011;2300;51.874;8.430;2023-08-08T05:24:05;12.30;;;5.75;;
4575;SDS011;2300;51.874;8.430;2023-08-08T05:26:33;10.70;;;7.07;;
4575;SDS011;2300;51.874;8.430;2023-08-08T05:29:00;15.10;;;6.67;;
4575;SDS011;2300;51.874;8.430;2023-08-08T05:31:27;13.35;;;6.70;;
4575;SDS011;2300;51.874;8.430;2023-08-08T05:33:54;12.15;;;6.70;;
4575;SDS011;2300;51.874;8.430;2023-08-08T05:36:20;11.45;;;6.13;;
4575;SDS011;2300;51.874;8.430;2023-08-08T05:38:47;10.60;;;6.73;;
4575;SDS011;2300;51.874;8.430;2023-08-08T05:41:13;15.50;;;6.95;;
4575;SDS011;2300;51.874;8.430;2023-08-08T05:43:41;10.27;;;6.32;;
4575;SDS011;2300;51.874;8.430;2023-08-08T05:46:08;12.43;;;7.10;;
4575;SDS011;2300;51.874;8.430;2023-08-08T05:48:35;12.77;;;7.13;;
4575;SDS011;2300;51.874;8.430;2023-08-08T05:51:01;11.80;;;6.75;;
4575;SDS011;2300;51.874;8.430;2023-08-08T05:53:30;10.25;;;6.15;;
4575;SDS011;2300;51.874;8.430;2023-08-08T05:55:56;12.07;;;6.35;;
4575;SDS011;2300;51.874;8.430;2023-08-08T05:58:23;11.05;;;5.93;;
4575;SDS011;2300;51.874;8.430;2023-08-08T06:00:51;10.60;;;6.20;;
4575;SDS011;2300;51.874;8.430;2023-08-08T06:03:18;13.27;;;6.73;;
4575;SDS011;2300;51.874;8.430;2023-08-08T06:05:45;14.30;;;6.90;;
4575;SDS011;2300;51.874;8.430;2023-08-08T06:08:11;12.63;;;6.93;;
4575;SDS011;2300;51.874;8.430;2023-08-08T06:10:39;12.43;;;7.07;;
4575;SDS011;2300;51.874;8.430;2023-08-08T06:13:06;14.80;;;7.72;;
4575;SDS011;2300;51.874;8.430;2023-08-08T06:15:33;10.07;;;7.13;;
4575;SDS011;2300;51.874;8.430;2023-08-08T06:18:01;14.35;;;8.75;;
4575;SDS011;2300;51.874;8.430;2023-08-08T06:20:27;12.95;;;9.05;;
4575;SDS011;2300;51.874;8.430;2023-08-08T06:22:54;13.73;;;9.10;;
4575;SDS011;2300;51.874;8.430;2023-08-08T06:25:21;15.30;;;9.13;;
4575;SDS011;2300;51.874;8.430;2023-08-08T06:27:48;15.63;;;11.27;;
4575;SDS011;2300;51.874;8.430;2023-08-08T06:30:14;17.58;;;11.73;;
4575;SDS011;2300;51.874;8.430;2023-08-08T06:32:41;15.48;;;11.95;;
4575;SDS011;2300;51.874;8.430;2023-08-08T06:35:09;18.52;;;13.02;;
4575;SDS011;2300;51.874;8.430;2023-08-08T06:37:36;16.17;;;13.13;;
4575;SDS011;2300;51.874;8.430;2023-08-08T06:40:03;18.23;;;13.88;;
4575;SDS011;2300;51.874;8.430;2023-08-08T06:42:32;24.38;;;14.43;;
4575;SDS011;2300;51.874;8.430;2023-08-08T06:44:58;20.10;;;16.02;;
4575;SDS011;2300;51.874;8.430;2023-08-08T06:47:25;19.92;;;14.98;;
4575;SDS011;2300;51.874;8.430;2023-08-08T06:49:51;20.17;;;16.13;;
4575;SDS011;2300;51.874;8.430;2023-08-08T06:52:20;22.20;;;16.08;;
4575;SDS011;2300;51.874;8.430;2023-08-08T06:54:47;28.65;;;17.98;;
4575;SDS011;2300;51.874;8.430;2023-08-08T06:57:13;25.70;;;16.88;;
4575;SDS011;2300;51.874;8.430;2023-08-08T06:59:40;21.08;;;15.73;;
4575;SDS011;2300;51.874;8.430;2023-08-08T07:02:07;24.90;;;16.67;;
4575;SDS011;2300;51.874;8.430;2023-08-08T07:04:34;22.02;;;17.65;;
4575;SDS011;2300;51.874;8.430;2023-08-08T07:07:01;22.50;;;17.63;;
4575;SDS011;2300;51.874;8.430;2023-08-08T07:09:29;26.42;;;17.85;;
4575;SDS011;2300;51.874;8.430;2023-08-08T07:11:56;23.52;;;17.73;;
4575;SDS011;2300;51.874;8.430;2023-08-08T07:14:22;27.13;;;19.40;;
4575;SDS011;2300;51.874;8.430;2023-08-08T07:16:49;46.35;;;19.10;;
4575;SDS011;2300;51.874;8.430;2023-08-08T07:19:15;27.40;;;18.20;;
4575;SDS011;2300;51.874;8.430;2023-08-08T07:21:43;25.63;;;18.50;;
4575;SDS011;2300;51.874;8.430;2023-08-08T07:24:11;25.90;;;18.15;;
4575;SDS011;2300;51.874;8.430;2023-08-08T07:26:39;22.65;;;16.48;;
4575;SDS011;2300;51.874;8.430;2023-08-08T07:29:06;27.15;;;16.00;;
4575;SDS011;2300;51.874;8.430;2023-08-08T07:31:32;23.98;;;17.23;;
4575;SDS011;2300;51.874;8.430;2023-08-08T07:33:59;23.48;;;17.63;;
4575;SDS011;2300;51.874;8.430;2023-08-08T07:36:26;22.25;;;17.45;;
4575;SDS011;2300;51.874;8.430;2023-08-08T07:38:52;25.77;;;17.67;;
4575;SDS011;2300;51.874;8.430;2023-08-08T07:41:21;23.88;;;17.92;;
4575;SDS011;2300;51.874;8.430;2023-08-08T07:43:50;25.35;;;18.60;;
4575;SDS011;2300;51.874;8.430;2023-08-08T07:46:17;26.40;;;18.80;;
4575;SDS011;2300;51.874;8.430;2023-08-08T07:48:43;24.23;;;18.27;;
4575;SDS011;2300;51.874;8.430;2023-08-08T07:51:10;27.67;;;18.73;;
4575;SDS011;2300;51.874;8.430;2023-08-08T07:53:37;25.30;;;18.23;;
4575;SDS011;2300;51.874;8.430;2023-08-08T07:56:03;24.85;;;18.23;;
4575;SDS011;2300;51.874;8.430;2023-08-08T07:58:31;26.15;;;18.02;;
4575;SDS011;2300;51.874;8.430;2023-08-08T08:00:59;27.20;;;19.15;;
4575;SDS011;2300;51.874;8.430;2023-08-08T08:03:26;24.60;;;17.75;;
4575;SDS011;2300;51.874;8.430;2023-08-08T08:05:53;27.63;;;17.65;;
4575;SDS011;2300;51.874;8.430;2023-08-08T08:08:19;21.88;;;17.60;;
4575;SDS011;2300;51.874;8.430;2023-08-08T08:10:46;26.00;;;17.92;;
4575;SDS011;2300;51.874;8.430;2023-08-08T08:13:13;24.10;;;16.85;;
4575;SDS011;2300;51.874;8.430;2023-08-08T08:15:40;23.83;;;17.85;;
4575;SDS011;2300;51.874;8.430;2023-08-08T08:18:08;23.95;;;16.80;;
4575;SDS011;2300;51.874;8.430;2023-08-08T08:20:36;24.75;;;18.08;;
4575;SDS011;2300;51.874;8.430;2023-08-08T08:23:03;22.33;;;17.52;;
4575;SDS011;2300;51.874;8.430;2023-08-08T08:25:30;26.50;;;18.25;;
4575;SDS011;2300;51.874;8.430;2023-08-08T08:27:57;27.63;;;18.08;;
4575;SDS011;2300;51.874;8.430;2023-08-08T08:30:23;26.13;;;16.98;;
4575;SDS011;2300;51.874;8.430;2023-08-08T08:32:51;26.48;;;16.98;;
4575;SDS011;2300;51.874;8.430;2023-08-08T08:35:20;25.50;;;17.10;;
4575;SDS011;2300;51.874;8.430;2023-08-08T08:37:46;25.98;;;17.50;;
4575;SDS011;2300;51.874;8.430;2023-08-08T08:40:13;27.40;;;17.38;;
4575;SDS011;2300;51.874;8.430;2023-08-08T08:42:40;19.45;;;16.08;;
4575;SDS011;2300;51.874;8.430;2023-08-08T08:45:08;22.55;;;16.85;;
4575;SDS011;2300;51.874;8.430;2023-08-08T08:47:36;21.98;;;15.70;;
4575;SDS011;2300;51.874;8.430;2023-08-08T08:50:03;18.80;;;15.10;;
4575;SDS011;2300;51.874;8.430;2023-08-08T08:52:32;21.55;;;15.00;;
4575;SDS011;2300;51.874;8.430;2023-08-08T08:54:59;22.20;;;15.43;;
4575;SDS011;2300;51.874;8.430;2023-08-08T08:57:27;23.52;;;15.45;;
4575;SDS011;2300;51.874;8.430;2023-08-08T08:59:54;20.75;;;14.52;;
4575;SDS011;2300;51.874;8.430;2023-08-08T09:02:21;17.42;;;14.38;;
4575;SDS011;2300;51.874;8.430;2023-08-08T09:04:50;20.20;;;13.60;;
4575;SDS011;2300;51.874;8.430;2023-08-08T09:07:17;17.48;;;14.13;;
4575;SDS011;2300;51.874;8.430;2023-08-08T09:09:48;21.83;;;13.95;;
4575;SDS011;2300;51.874;8.430;2023-08-08T09:12:14;17.55;;;13.63;;
4575;SDS011;2300;51.874;8.430;2023-08-08T09:14:42;22.83;;;16.27;;
4575;SDS011;2300;51.874;8.430;2023-08-08T09:17:12;26.88;;;17.73;;
4575;SDS011;2300;51.874;8.430;2023-08-08T09:19:42;29.40;;;20.17;;
4575;SDS011;2300;51.874;8.430;2023-08-08T09:22:09;30.63;;;19.30;;
4575;SDS011;2300;51.874;8.430;2023-08-08T09:24:38;29.60;;;20.45;;
4575;SDS011;2300;51.874;8.430;2023-08-08T09:27:07;32.53;;;22.17;;
4575;SDS011;2300;51.874;8.430;2023-08-08T09:29:34;33.90;;;22.50;;
4575;SDS011;2300;51.874;8.430;2023-08-08T09:32:02;34.90;;;23.50;;
4575;SDS011;2300;51.874;8.430;2023-08-08T09:34:29;34.60;;;26.10;;
4575;SDS011;2300;51.874;8.430;2023-08-08T09:36:56;37.67;;;26.93;;
4575;SDS011;2300;51.874;8.430;2023-08-08T09:39:23;37.38;;;27.77;;
4575;SDS011;2300;51.874;8.430;2023-08-08T09:41:50;42.97;;;30.75;;
4575;SDS011;2300;51.874;8.430;2023-08-08T09:44:22;41.17;;;30.92;;
4575;SDS011;2300;51.874;8.430;2023-08-08T09:46:49;33.88;;;25.73;;
4575;SDS011;2300;51.874;8.430;2023-08-08T09:49:16;24.00;;;18.88;;
4575;SDS011;2300;51.874;8.430;2023-08-08T09:51:43;23.60;;;17.38;;
4575;SDS011;2300;51.874;8.430;2023-08-08T09:54:10;21.65;;;14.02;;
4575;SDS011;2300;51.874;8.430;2023-08-08T09:56:37;13.50;;;10.60;;
4575;SDS011;2300;51.874;8.430;2023-08-08T09:59:06;12.75;;;9.43;;
4575;SDS011;2300;51.874;8.430;2023-08-08T10:01:37;14.15;;;7.97;;
4575;SDS011;2300;51.874;8.430;2023-08-08T10:04:06;12.90;;;7.28;;
4575;SDS011;2300;51.874;8.430;2023-08-08T10:06:33;9.52;;;6.30;;
4575;SDS011;2300;51.874;8.430;2023-08-08T10:09:00;11.52;;;4.93;;
4575;SDS011;2300;51.874;8.430;2023-08-08T10:11:28;8.52;;;4.65;;
4575;SDS011;2300;51.874;8.430;2023-08-08T10:13:57;9.23;;;3.95;;
4575;SDS011;2300;51.874;8.430;2023-08-08T10:16:25;9.02;;;3.97;;
4575;SDS011;2300;51.874;8.430;2023-08-08T10:18:56;5.68;;;3.15;;
4575;SDS011;2300;51.874;8.430;2023-08-08T10:21:24;7.78;;;3.38;;
4575;SDS011;2300;51.874;8.430;2023-08-08T10:24:00;6.63;;;2.90;;
4575;SDS011;2300;51.874;8.430;2023-08-08T10:26:28;9.23;;;3.30;;
4575;SDS011;2300;51.874;8.430;2023-08-08T10:28:55;7.53;;;3.30;;
4575;SDS011;2300;51.874;8.430;2023-08-08T10:31:23;7.47;;;3.10;;
4575;SDS011;2300;51.874;8.430;2023-08-08T10:33:59;6.53;;;2.78;;
4575;SDS011;2300;51.874;8.430;2023-08-08T10:36:42;5.60;;;2.90;;
4575;SDS011;2300;51.874;8.430;2023-08-08T10:39:11;5.97;;;2.78;;
4575;SDS011;2300;51.874;8.430;2023-08-08T10:41:44;7.05;;;2.75;;
4575;SDS011;2300;51.874;8.430;2023-08-08T10:44:12;4.70;;;2.47;;
4575;SDS011;2300;51.874;8.430;2023-08-08T10:46:40;5.45;;;2.45;;
4575;SDS011;2300;51.874;8.430;2023-08-08T10:49:10;8.05;;;2.63;;
4575;SDS011;2300;51.874;8.430;2023-08-08T10:51:40;8.77;;;2.70;;
4575;SDS011;2300;51.874;8.430;2023-08-08T10:54:12;8.43;;;3.10;;
4575;SDS011;2300;51.874;8.430;2023-08-08T10:56:40;6.85;;;2.10;;
4575;SDS011;2300;51.874;8.430;2023-08-08T10:59:13;7.50;;;2.42;;
4575;SDS011;2300;51.874;8.430;2023-08-08T11:01:42;10.95;;;2.60;;
4575;SDS011;2300;51.874;8.430;2023-08-08T11:04:12;4.97;;;2.08;;
4575;SDS011;2300;51.874;8.430;2023-08-08T11:06:39;4.22;;;2.00;;
4575;SDS011;2300;51.874;8.430;2023-08-08T11:09:06;5.15;;;2.22;;
4575;SDS011;2300;51.874;8.430;2023-08-08T11:11:35;4.93;;;2.00;;
4575;SDS011;2300;51.874;8.430;2023-08-08T11:14:08;7.20;;;1.98;;
4575;SDS011;2300;51.874;8.430;2023-08-08T11:16:36;5.05;;;1.30;;
4575;SDS011;2300;51.874;8.430;2023-08-08T11:19:03;3.45;;;1.10;;
4575;SDS011;2300;51.874;8.430;2023-08-08T11:21:34;4.32;;;1.20;;
4575;SDS011;2300;51.874;8.430;2023-08-08T11:24:03;6.22;;;1.10;;
4575;SDS011;2300;51.874;8.430;2023-08-08T11:26:31;2.30;;;0.85;;
4575;SDS011;2300;51.874;8.430;2023-08-08T11:28:58;5.40;;;1.25;;
4575;SDS011;2300;51.874;8.430;2023-08-08T11:31:25;3.22;;;1.40;;
4575;SDS011;2300;51.874;8.430;2023-08-08T11:33:53;4.35;;;1.20;;
4575;SDS011;2300;51.874;8.430;2023-08-08T11:36:20;6.85;;;1.10;;
4575;SDS011;2300;51.874;8.430;2023-08-08T11:38:48;3.17;;;1.20;;
4575;SDS011;2300;51.874;8.430;2023-08-08T11:41:16;5.25;;;1.25;;
4575;SDS011;2300;51.874;8.430;2023-08-08T11:43:46;2.72;;;1.00;;
4575;SDS011;2300;51.874;8.430;2023-08-08T11:46:12;5.55;;;1.10;;
4575;SDS011;2300;51.874;8.430;2023-08-08T11:48:40;3.00;;;1.20;;
4575;SDS011;2300;51.874;8.430;2023-08-08T11:51:07;3.13;;;0.90;;
4575;SDS011;2300;51.874;8.430;2023-08-08T11:53:35;5.68;;;1.38;;
4575;SDS011;2300;51.874;8.430;2023-08-08T11:56:03;4.13;;;1.10;;
4575;SDS011;2300;51.874;8.430;2023-08-08T11:58:30;3.78;;;1.13;;
4575;SDS011;2300;51.874;8.430;2023-08-08T12:00:57;4.25;;;1.00;;
4575;SDS011;2300;51.874;8.430;2023-08-08T12:03:24;2.30;;;1.02;;
4575;SDS011;2300;51.874;8.430;2023-08-08T12:05:52;5.25;;;1.10;;
4575;SDS011;2300;51.874;8.430;2023-08-08T12:08:18;4.07;;;1.00;;
4575;SDS011;2300;51.874;8.430;2023-08-08T12:10:49;4.78;;;1.00;;
4575;SDS011;2300;51.874;8.430;2023-08-08T12:13:20;3.53;;;1.10;;
4575;SDS011;2300;51.874;8.430;2023-08-08T12:15:48;2.75;;;1.00;;
4575;SDS011;2300;51.874;8.430;2023-08-08T12:18:16;2.60;;;1.13;;
4575;SDS011;2300;51.874;8.430;2023-08-08T12:20:43;4.25;;;0.90;;
4575;SDS011;2300;51.874;8.430;2023-08-08T12:23:09;3.40;;;0.90;;
4575;SDS011;2300;51.874;8.430;2023-08-08T12:25:36;3.53;;;0.70;;
4575;SDS011;2300;51.874;8.430;2023-08-08T12:28:04;4.18;;;0.90;;
4575;SDS011;2300;51.874;8.430;2023-08-08T12:30:32;4.07;;;1.05;;
4575;SDS011;2300;51.874;8.430;2023-08-08T12:33:00;1.65;;;0.70;;
4575;SDS011;2300;51.874;8.430;2023-08-08T12:35:27;2.50;;;0.82;;
4575;SDS011;2300;51.874;8.430;2023-08-08T12:37:53;2.97;;;0.90;;
4575;SDS011;2300;51.874;8.430;2023-08-08T12:40:20;3.72;;;0.90;;
4575;SDS011;2300;51.874;8.430;2023-08-08T12:42:46;3.83;;;1.00;;
4575;SDS011;2300;51.874;8.430;2023-08-08T12:45:13;3.88;;;0.95;;
4575;SDS011;2300;51.874;8.430;2023-08-08T12:47:41;2.20;;;0.80;;
4575;SDS011;2300;51.874;8.430;2023-08-08T12:50:08;2.53;;;0.80;;
4575;SDS011;2300;51.874;8.430;2023-08-08T12:52:35;3.53;;;1.00;;
4575;SDS011;2300;51.874;8.430;2023-08-08T12:55:03;3.28;;;0.80;;
4575;SDS011;2300;51.874;8.430;2023-08-08T12:57:30;1.75;;;0.65;;
4575;SDS011;2300;51.874;8.430;2023-08-08T12:59:57;2.53;;;1.10;;
4575;SDS011;2300;51.874;8.430;2023-08-08T13:02:24;3.22;;;1.08;;
4575;SDS011;2300;51.874;8.430;2023-08-08T13:04:52;2.72;;;0.85;;
4575;SDS011;2300;51.874;8.430;2023-08-08T13:07:18;2.17;;;0.75;;
4575;SDS011;2300;51.874;8.430;2023-08-08T13:09:45;3.47;;;0.80;;
4575;SDS011;2300;51.874;8.430;2023-08-08T13:12:12;3.00;;;0.80;;
4575;SDS011;2300;51.874;8.430;2023-08-08T13:14:38;2.20;;;0.73;;
4575;SDS011;2300;51.874;8.430;2023-08-08T13:17:05;4.03;;;0.90;;
4575;SDS011;2300;51.874;8.430;2023-08-08T13:19:31;3.13;;;0.85;;
4575;SDS011;2300;51.874;8.430;2023-08-08T13:21:59;3.42;;;1.10;;
4575;SDS011;2300;51.874;8.430;2023-08-08T13:24:26;5.35;;;0.90;;
4575;SDS011;2300;51.874;8.430;2023-08-08T13:26:53;4.45;;;0.90;;
4575;SDS011;2300;51.874;8.430;2023-08-08T13:29:19;2.85;;;1.00;;
4575;SDS011;2300;51.874;8.430;2023-08-08T13:31:46;4.20;;;1.10;;
4575;SDS011;2300;51.874;8.430;2023-08-08T13:34:12;6.25;;;1.70;;
4575;SDS011;2300;51.874;8.430;2023-08-08T13:36:39;4.55;;;1.50;;
4575;SDS011;2300;51.874;8.430;2023-08-08T13:39:07;3.22;;;1.23;;
4575;SDS011;2300;51.874;8.430;2023-08-08T13:41:35;5.65;;;1.58;;
4575;SDS011;2300;51.874;8.430;2023-08-08T13:44:02;4.88;;;1.25;;
4575;SDS011;2300;51.874;8.430;2023-08-08T13:46:29;3.58;;;1.25;;
4575;SDS011;2300;51.874;8.430;2023-08-08T13:48:55;3.63;;;0.90;;
4575;SDS011;2300;51.874;8.430;2023-08-08T13:51:22;3.65;;;1.05;;
4575;SDS011;2300;51.874;8.430;2023-08-08T13:53:49;3.72;;;1.05;;
4575;SDS011;2300;51.874;8.430;2023-08-08T13:56:17;2.78;;;1.00;;
4575;SDS011;2300;51.874;8.430;2023-08-08T13:58:44;3.60;;;1.00;;
4575;SDS011;2300;51.874;8.430;2023-08-08T14:01:11;3.72;;;1.10;;
4575;SDS011;2300;51.874;8.430;2023-08-08T14:03:37;3.85;;;0.98;;
4575;SDS011;2300;51.874;8.430;2023-08-08T14:06:04;3.25;;;0.85;;
4575;SDS011;2300;51.874;8.430;2023-08-08T14:08:31;2.67;;;0.90;;
4575;SDS011;2300;51.874;8.430;2023-08-08T14:10:58;4.22;;;1.00;;
4575;SDS011;2300;51.874;8.430;2023-08-08T14:13:26;4.68;;;0.98;;
4575;SDS011;2300;51.874;8.430;2023-08-08T14:15:52;4.40;;;1.30;;
4575;SDS011;2300;51.874;8.430;2023-08-08T14:18:19;2.88;;;1.10;;
4575;SDS011;2300;51.874;8.430;2023-08-08T14:20:46;3.55;;;1.13;;
4575;SDS011;2300;51.874;8.430;2023-08-08T14:23:12;4.50;;;1.42;;
4575;SDS011;2300;51.874;8.430;2023-08-08T14:25:39;3.03;;;1.08;;
4575;SDS011;2300;51.874;8.430;2023-08-08T14:28:06;6.30;;;1.50;;
4575;SDS011;2300;51.874;8.430;2023-08-08T14:30:34;4.97;;;1.35;;
4575;SDS011;2300;51.874;8.430;2023-08-08T14:33:00;3.30;;;1.20;;
4575;SDS011;2300;51.874;8.430;2023-08-08T14:35:27;4.13;;;0.95;;
4575;SDS011;2300;51.874;8.430;2023-08-08T14:37:54;4.20;;;1.05;;
4575;SDS011;2300;51.874;8.430;2023-08-08T14:40:21;5.50;;;1.27;;
4575;SDS011;2300;51.874;8.430;2023-08-08T14:42:47;5.35;;;1.20;;
4575;SDS011;2300;51.874;8.430;2023-08-08T14:45:14;3.90;;;0.98;;
4575;SDS011;2300;51.874;8.430;2023-08-08T14:47:42;3.97;;;0.82;;
4575;SDS011;2300;51.874;8.430;2023-08-08T14:50:09;4.97;;;1.20;;
4575;SDS011;2300;51.874;8.430;2023-08-08T14:52:36;2.47;;;1.05;;
4575;SDS011;2300;51.874;8.430;2023-08-08T14:55:02;2.85;;;0.90;;
4575;SDS011;2300;51.874;8.430;2023-08-08T14:57:29;2.38;;;0.75;;
4575;SDS011;2300;51.874;8.430;2023-08-08T14:59:57;1.55;;;0.80;;
4575;SDS011;2300;51.874;8.430;2023-08-08T15:02:24;2.15;;;0.77;;